.
WxDataArchive / Data Records for 2014-05-02
2014-05-01 May 2014 2014-05-03

Data Records for Friday, 02 May 2014

Time	Temp	Chill	HIndex	Humid	Dewpt	 Wind 	HiWind	WindDir	Rain 	Barom
-----	----	-----	------	-----	-----	------	------	-------	-----	-----
00:00	46.8	46.8	46.8	77	40.0	2	9	248	0.00	29.813 
00:05	46.8	46.8	46.8	77	40.0	2	5	248	0.00	29.813 
00:10	46.7	46.7	46.7	77	39.9	2	9	248	0.00	29.813 
00:15	46.7	46.7	46.7	77	39.9	2	6	248	0.00	29.814 
00:20	46.7	46.7	46.7	78	40.2	1	6	270	0.00	29.814 
00:25	46.7	46.7	46.7	78	40.2	1	6	270	0.00	29.814 
00:30	46.5	46.5	46.5	79	40.3	1	4	248	0.00	29.811 
00:35	46.5	46.5	46.5	79	40.3	1	5	248	0.00	29.811 
00:40	46.5	46.5	46.5	78	40.0	2	5	248	0.00	29.811 
00:45	46.5	46.5	46.5	78	40.0	1	4	248	0.00	29.809 
00:50	46.5	46.5	46.5	78	40.0	2	10	225	0.00	29.809 
00:55	46.7	46.7	46.7	79	40.5	1	5	248	0.00	29.809 
01:00	46.5	46.5	46.5	79	40.3	1	3	248	0.00	29.808 
01:05	46.5	46.5	46.5	79	40.3	2	5	248	0.00	29.808 
01:10	46.5	46.5	46.5	79	40.3	2	5	248	0.00	29.808 
01:15	46.5	46.5	46.5	79	40.3	2	4	248	0.00	29.806 
01:20	46.5	46.5	46.5	79	40.3	0	2	248	0.00	29.806 
01:25	46.5	46.5	46.5	80	40.7	2	4	248	0.00	29.806 
01:30	46.5	46.5	46.5	80	40.7	2	5	248	0.00	29.804 
01:35	46.5	46.5	46.5	80	40.7	1	4	248	0.00	29.804 
01:40	46.5	46.5	46.5	81	41.0	1	3	248	0.00	29.804 
01:45	46.4	46.4	46.4	81	40.9	2	4	248	0.00	29.803 
01:50	46.4	46.4	46.4	81	40.9	1	4	248	0.00	29.803 
01:55	46.4	46.4	46.4	81	40.9	1	4	248	0.00	29.803 
02:00	46.4	46.4	46.4	81	40.9	2	5	248	0.00	29.801 
02:05	46.4	46.4	46.4	81	40.9	1	4	248	0.00	29.801 
02:10	46.4	46.4	46.4	82	41.2	1	3	248	0.00	29.801 
02:15	46.4	46.4	46.4	82	41.2	1	4	248	0.00	29.798 
02:20	46.2	46.2	46.2	82	41.0	1	3	248	0.00	29.798 
02:25	46.2	46.2	46.2	82	41.0	1	4	292	0.00	29.798 
02:30	46.2	46.2	46.2	82	41.0	1	7	248	0.00	29.794 
02:35	46.2	46.2	46.2	82	41.0	1	3	248	0.00	29.794 
02:40	46.2	46.2	46.2	82	41.0	2	6	248	0.00	29.794 
02:45	46.2	46.2	46.2	82	41.0	1	4	248	0.00	29.789 
02:50	46.2	46.2	46.2	82	41.0	1	3	248	0.00	29.789 
02:55	46.2	46.2	46.2	82	41.0	1	3	248	0.00	29.789 
03:00	46.2	46.2	46.2	82	41.0	1	3	248	0.00	29.788 
03:05	46.2	46.2	46.2	82	41.0	1	4	248	0.00	29.788 
03:10	46.2	46.2	46.2	82	41.0	1	3	248	0.00	29.788 
03:15	46.2	46.2	46.2	82	41.0	1	4	248	0.00	29.788 
03:20	46.2	46.2	46.2	82	41.0	1	3	248	0.00	29.788 
03:25	46.2	46.2	46.2	82	41.0	1	4	248	0.00	29.788 
03:30	46.2	46.2	46.2	82	41.0	1	3	248	0.00	29.788 
03:35	46.2	46.2	46.2	83	41.3	1	4	248	0.00	29.788 
03:40	46.2	46.2	46.2	83	41.3	1	6	225	0.00	29.788 
03:45	46.2	46.2	46.2	83	41.3	2	5	248	0.00	29.786 
03:50	46.2	46.2	46.2	83	41.3	1	3	248	0.00	29.786 
03:55	46.2	46.2	46.2	83	41.3	1	4	248	0.00	29.786 
04:00	46.2	46.2	46.2	82	41.0	1	4	248	0.00	29.786 
04:05	46.2	46.2	46.2	82	41.0	1	5	248	0.00	29.786 
04:10	46.2	46.2	46.2	82	41.0	1	4	248	0.00	29.786 
04:15	46.2	46.2	46.2	82	41.0	1	4	248	0.00	29.786 
04:20	46.2	46.2	46.2	82	41.0	1	3	248	0.00	29.786 
04:25	46.4	46.4	46.4	82	41.2	1	3	248	0.00	29.786 
04:30	46.2	46.2	46.2	82	41.0	1	3	248	0.00	29.787 
04:35	46.2	46.2	46.2	82	41.0	1	4	248	0.00	29.787 
04:40	46.2	46.2	46.2	82	41.0	1	3	248	0.00	29.787 
04:45	46.2	46.2	46.2	82	41.0	1	4	248	0.00	29.788 
04:50	46.2	46.2	46.2	83	41.3	1	3	248	0.00	29.788 
04:55	46.2	46.2	46.2	83	41.3	0	2	248	0.00	29.788 
05:00	46.1	46.1	46.1	83	41.2	1	4	248	0.00	29.788 
05:05	46.1	46.1	46.1	83	41.2	1	3	248	0.00	29.788 
05:10	46.1	46.1	46.1	84	41.5	2	5	270	0.00	29.788 
05:15	46.0	46.0	46.0	84	41.4	1	3	270	0.00	29.786 
05:20	46.0	46.0	46.0	84	41.4	1	3	270	0.00	29.786 
05:25	46.0	46.0	46.0	84	41.4	0	2	270	0.00	29.786 
05:30	46.0	46.0	46.0	85	41.7	0	1	270	0.00	29.787 
05:35	45.8	45.8	45.8	86	41.9	0	2	270	0.00	29.787 
05:40	45.7	45.7	45.7	86	41.8	0	2	270	0.00	29.787 
05:45	45.5	45.5	45.5	87	41.9	0	3	270	0.00	29.788 
05:50	45.4	45.4	45.4	88	42.1	1	3	270	0.00	29.788 
05:55	45.4	45.4	45.4	88	42.1	0	2	270	0.00	29.788 
06:00	45.4	45.4	45.4	88	42.1	0	1	270	0.00	29.790 
06:05	45.4	45.4	45.4	88	42.1	0	3	270	0.00	29.790 
06:10	45.4	45.4	45.4	88	42.1	0	2	270	0.00	29.790 
06:15	45.4	45.4	45.4	88	42.1	0	2	270	0.00	29.790 
06:20	45.4	45.4	45.4	88	42.1	0	3	270	0.00	29.790 
06:25	45.4	45.4	45.4	88	42.1	1	3	270	0.00	29.790 
06:30	45.5	45.5	45.5	88	42.2	0	2	270	0.00	29.793 
06:35	45.5	45.5	45.5	88	42.2	0	2	270	0.00	29.793 
06:40	45.5	45.5	45.5	88	42.2	0	2	270	0.00	29.793 
06:45	45.5	45.5	45.5	88	42.2	0	2	270	0.00	29.792 
06:50	45.5	45.5	45.5	88	42.2	0	2	270	0.00	29.792 
06:55	45.5	45.5	45.5	88	42.2	0	2	270	0.00	29.792 
07:00	45.7	45.7	45.7	87	42.1	1	4	270	0.00	29.795 
07:05	45.7	45.7	45.7	87	42.1	1	2	270	0.00	29.795 
07:10	45.7	45.7	45.7	87	42.1	0	2	270	0.00	29.795 
07:15	45.8	45.8	45.8	87	42.2	1	2	270	0.00	29.799 
07:20	45.8	45.8	45.8	87	42.2	0	2	270	0.00	29.799 
07:25	45.8	45.8	45.8	87	42.2	0	2	270	0.00	29.799 
07:30	45.8	45.8	45.8	87	42.2	0	4	248	0.00	29.803 
07:35	45.8	45.8	45.8	87	42.2	0	2	248	0.00	29.803 
07:40	45.8	45.8	45.8	88	42.5	0	2	248	0.00	29.803 
07:45	46.0	46.0	46.0	88	42.6	1	4	248	0.00	29.806 
07:50	46.0	46.0	46.0	88	42.6	0	2	248	0.00	29.806 
07:55	46.1	46.1	46.1	87	42.4	1	3	248	0.00	29.806 
08:00	46.1	46.1	46.1	87	42.4	1	3	248	0.00	29.810 
08:05	46.1	46.1	46.1	87	42.4	1	3	248	0.00	29.810 
08:10	46.1	46.1	46.1	88	42.7	0	1	248	0.00	29.810 
08:15	46.1	46.1	46.1	88	42.7	1	3	248	0.00	29.813 
08:20	46.1	46.1	46.1	88	42.7	1	3	248	0.00	29.813 
08:25	46.1	46.1	46.1	88	42.7	0	3	248	0.00	29.813 
08:30	46.1	46.1	46.1	88	42.7	1	3	248	0.00	29.817 
08:35	46.1	46.1	46.1	89	43.0	0	3	248	0.00	29.817 
08:40	46.1	46.1	46.1	89	43.0	0	2	248	0.00	29.817 
08:45	46.1	46.1	46.1	89	43.0	0	2	248	0.00	29.822 
08:50	46.2	46.2	46.2	89	43.1	0	4	248	0.00	29.822 
08:55	46.2	46.2	46.2	89	43.1	1	3	248	0.00	29.822 
09:00	46.2	46.2	46.2	89	43.1	1	3	248	0.00	29.824 
09:05	46.2	46.2	46.2	89	43.1	0	2	248	0.00	29.824 
09:10	46.2	46.2	46.2	89	43.1	0	2	248	0.00	29.824 
09:15	46.2	46.2	46.2	89	43.1	1	3	248	0.00	29.824 
09:20	46.4	46.4	46.4	89	43.3	1	2	248	0.00	29.824 
09:25	46.5	46.5	46.5	89	43.4	1	4	248	0.00	29.824 
09:30	46.7	46.7	46.7	88	43.3	1	4	248	0.00	29.824 
09:35	47.0	47.0	47.0	88	43.6	1	3	248	0.00	29.824 
09:40	47.0	47.0	47.0	88	43.6	0	2	248	0.00	29.824 
09:45	47.1	47.1	47.1	88	43.7	1	3	248	0.00	29.827 
09:50	47.1	47.1	47.1	88	43.7	1	4	248	0.00	29.827 
09:55	47.1	47.1	47.1	88	43.7	1	3	248	0.00	29.827 
10:00	47.1	47.1	47.1	87	43.4	1	4	248	0.00	29.828 
10:05	47.1	47.1	47.1	87	43.4	1	3	248	0.00	29.828 
10:10	47.1	47.1	47.1	87	43.4	1	3	248	0.00	29.828 
10:15	47.0	47.0	47.0	86	43.0	1	3	248	0.00	29.829 
10:20	47.3	47.3	47.3	87	43.6	0	2	248	0.00	29.829 
10:25	47.4	47.4	47.4	86	43.4	1	4	248	0.00	29.829 
10:30	47.6	47.6	47.6	85	43.3	1	3	248	0.00	29.830 
10:35	47.6	47.6	47.6	84	43.0	2	4	248	0.00	29.830 
10:40	47.7	47.7	47.7	84	43.1	1	3	248	0.00	29.830 
10:45	47.9	47.9	47.9	84	43.3	2	5	248	0.00	29.833 
10:50	48.0	48.0	48.0	84	43.4	1	4	248	0.00	29.833 
10:55	47.9	47.9	47.9	83	43.0	2	5	248	0.00	29.833 
11:00	48.0	48.0	48.0	83	43.1	1	5	248	0.00	29.837 
11:05	48.2	48.2	48.2	83	43.3	1	4	248	0.00	29.837 
11:10	48.3	48.3	48.3	82	43.1	0	2	248	0.00	29.837 
11:15	48.5	48.5	48.5	82	43.3	1	3	248	0.00	29.836 
11:20	48.6	48.6	48.6	81	43.0	2	4	248	0.00	29.836 
11:25	48.8	48.8	48.8	81	43.2	2	5	248	0.00	29.836 
11:30	49.1	49.1	49.1	80	43.2	1	4	248	0.00	29.837 
11:35	49.2	49.2	49.2	80	43.3	2	3	248	0.00	29.837 
11:40	49.4	49.4	49.4	79	43.2	2	4	248	0.00	29.837 
11:45	49.2	49.2	49.2	78	42.6	2	5	248	0.00	29.839 
11:50	48.8	48.8	48.8	78	42.2	2	5	248	0.00	29.839 
11:55	48.6	48.6	48.6	80	42.7	2	5	270	0.00	29.839 
12:00	48.6	48.6	48.6	80	42.7	2	4	270	0.00	29.844 
12:05	48.9	48.9	48.9	80	43.0	1	3	270	0.00	29.844 
12:10	48.8	48.8	48.8	80	42.9	1	5	270	0.00	29.844 
12:15	48.6	48.6	48.6	80	42.7	2	4	270	0.00	29.845 
12:20	48.9	48.9	48.9	79	42.7	0	2	270	0.00	29.845 
12:25	49.1	49.1	49.1	78	42.5	1	4	270	0.00	29.845 
12:30	49.2	49.2	49.2	77	42.3	1	4	270	0.00	29.841 
12:35	49.2	49.2	49.2	76	42.0	1	5	248	0.00	29.841 
12:40	49.4	49.4	49.4	76	42.2	1	5	270	0.00	29.841 
12:45	49.4	49.4	49.4	75	41.8	1	3	270	0.00	29.843 
12:50	49.4	49.4	49.4	74	41.5	2	6	248	0.00	29.843 
12:55	49.1	49.1	49.1	74	41.2	1	5	248	0.00	29.843 
13:00	49.2	49.2	49.2	75	41.6	0	3	248	0.00	29.842 
13:05	49.2	49.2	49.2	74	41.3	1	5	248	0.00	29.842 
13:10	49.5	49.5	49.5	73	41.2	2	6	248	0.00	29.842 
13:15	49.8	49.8	49.8	72	41.1	2	5	248	0.00	29.838 
13:20	49.8	49.8	49.8	72	41.1	2	5	270	0.00	29.838 
13:25	49.8	49.8	49.8	73	41.5	1	4	248	0.00	29.838 
13:30	49.6	49.6	49.6	72	40.9	2	5	248	0.00	29.841 
13:35	49.5	49.5	49.5	73	41.2	1	4	248	0.00	29.841 
13:40	49.4	49.4	49.4	73	41.1	2	5	248	0.00	29.841 
13:45	49.4	49.4	49.4	73	41.1	2	5	248	0.00	29.843 
13:50	49.2	49.2	49.2	74	41.3	1	4	248	0.00	29.843 
13:55	49.2	49.2	49.2	74	41.3	1	4	248	0.00	29.843 
14:00	49.2	49.2	49.2	74	41.3	2	5	270	0.00	29.841 
14:05	49.4	49.4	49.4	75	41.8	1	3	270	0.00	29.841 
14:10	49.9	49.9	49.9	74	41.9	1	4	270	0.00	29.841 
14:15	50.2	50.2	50.2	72	41.5	1	3	270	0.00	29.834 
14:20	51.3	51.3	51.3	73	42.9	2	4	270	0.00	29.834 
14:25	51.9	51.9	51.9	69	42.1	2	4	270	0.00	29.834 
14:30	51.7	51.7	51.7	68	41.5	2	5	248	0.00	29.822 
14:35	51.4	51.4	51.4	68	41.2	2	6	248	0.00	29.822 
14:40	51.9	51.9	51.9	70	42.4	0	2	248	0.00	29.822 
14:45	52.8	52.8	52.8	67	42.1	2	6	270	0.00	29.819 
14:50	53.3	53.3	53.3	65	41.8	2	5	248	0.00	29.819 
14:55	53.8	53.8	53.8	61	40.7	2	4	248	0.00	29.819 
15:00	53.6	53.6	53.6	62	40.9	2	5	248	0.00	29.816 
15:05	53.3	53.3	53.3	62	40.6	2	5	248	0.00	29.816 
15:10	53.2	53.2	53.2	63	40.9	1	4	248	0.00	29.816 
15:15	53.3	53.3	53.3	62	40.6	1	4	248	0.00	29.815 
15:20	53.3	53.3	53.3	60	39.8	2	8	248	0.00	29.815 
15:25	53.1	53.1	53.1	61	40.0	1	4	248	0.00	29.815 
15:30	52.9	52.9	52.9	61	39.8	1	5	248	0.00	29.812 
15:35	53.1	53.1	53.1	61	40.0	2	6	248	0.00	29.812 
15:40	53.5	53.5	53.5	59	39.5	1	4	248	0.00	29.812 
15:45	53.9	53.9	53.9	58	39.5	2	4	248	0.00	29.802 
15:50	53.9	53.9	53.9	57	39.0	2	6	248	0.00	29.802 
15:55	53.8	53.8	53.8	58	39.4	1	7	248	0.00	29.802 
16:00	53.5	53.5	53.5	58	39.1	3	7	248	0.00	29.801 
16:05	53.3	53.3	53.3	59	39.3	2	6	248	0.00	29.801 
16:10	53.3	53.3	53.3	60	39.8	2	5	270	0.00	29.801 
16:15	53.3	53.3	53.3	59	39.3	2	5	248	0.00	29.802 
16:20	53.2	53.2	53.2	60	39.7	2	5	248	0.00	29.802 
16:25	53.2	53.2	53.2	59	39.2	2	4	248	0.00	29.802 
16:30	53.1	53.1	53.1	61	40.0	1	3	248	0.00	29.802 
16:35	53.1	53.1	53.1	60	39.6	2	7	248	0.00	29.802 
16:40	53.1	53.1	53.1	61	40.0	2	4	248	0.00	29.802 
16:45	53.1	53.1	53.1	61	40.0	1	5	248	0.00	29.801 
16:50	52.9	52.9	52.9	60	39.4	2	5	248	0.00	29.801 
16:55	52.8	52.8	52.8	61	39.7	2	6	248	0.00	29.801 
17:00	52.8	52.8	52.8	61	39.7	2	5	248	0.00	29.803 
17:05	52.8	52.8	52.8	61	39.7	1	3	270	0.00	29.803 
17:10	52.8	52.8	52.8	61	39.7	1	5	270	0.00	29.803 
17:15	52.8	52.8	52.8	61	39.7	2	5	248	0.00	29.803 
17:20	52.8	52.8	52.8	60	39.3	1	5	248	0.00	29.803 
17:25	52.6	52.6	52.6	61	39.5	1	4	248	0.00	29.803 
17:30	52.6	52.6	52.6	60	39.1	1	4	248	0.00	29.804 
17:35	52.6	52.6	52.6	60	39.1	2	7	248	0.00	29.804 
17:40	52.8	52.8	52.8	61	39.7	1	6	248	0.00	29.804 
17:45	52.8	52.8	52.8	60	39.3	2	5	248	0.00	29.807 
17:50	52.6	52.6	52.6	62	40.0	2	4	248	0.00	29.807 
17:55	52.6	52.6	52.6	62	40.0	1	3	248	0.00	29.807 
18:00	52.8	52.8	52.8	62	40.1	0	3	248	0.00	29.807 
18:05	52.8	52.8	52.8	60	39.3	1	4	248	0.00	29.807 
18:10	52.6	52.6	52.6	60	39.1	2	7	248	0.00	29.807 
18:15	52.6	52.6	52.6	60	39.1	1	3	248	0.00	29.812 
18:20	52.5	52.5	52.5	60	39.0	1	5	248	0.00	29.812 
18:25	52.5	52.5	52.5	61	39.4	0	2	248	0.00	29.812 
18:30	52.3	52.3	52.3	61	39.3	1	5	248	0.00	29.814 
18:35	52.3	52.3	52.3	62	39.7	1	3	248	0.00	29.814 
18:40	52.3	52.3	52.3	61	39.3	1	3	248	0.00	29.814 
18:45	52.3	52.3	52.3	62	39.7	0	3	248	0.00	29.811 
18:50	52.3	52.3	52.3	62	39.7	1	3	248	0.00	29.811 
18:55	52.2	52.2	52.2	62	39.6	1	3	248	0.00	29.811 
19:00	52.2	52.2	52.2	62	39.6	1	6	248	0.00	29.805 
19:05	52.2	52.2	52.2	62	39.6	1	5	248	0.00	29.805 
19:10	52.0	52.0	52.0	63	39.8	1	3	248	0.00	29.805 
19:15	52.0	52.0	52.0	63	39.8	0	1	248	0.00	29.807 
19:20	51.9	51.9	51.9	63	39.7	1	4	248	0.00	29.807 
19:25	51.7	51.7	51.7	63	39.5	1	3	248	0.00	29.807 
19:30	51.7	51.7	51.7	63	39.5	0	3	248	0.00	29.806 
19:35	51.7	51.7	51.7	64	39.9	1	4	248	0.00	29.806 
19:40	51.7	51.7	51.7	63	39.5	0	2	248	0.00	29.806 
19:45	51.7	51.7	51.7	64	39.9	0	2	248	0.00	29.806 
19:50	51.7	51.7	51.7	63	39.5	1	3	248	0.00	29.806 
19:55	51.6	51.6	51.6	63	39.4	1	5	270	0.00	29.806 
20:00	51.6	51.6	51.6	63	39.4	1	4	248	0.00	29.805 
20:05	51.4	51.4	51.4	64	39.6	1	3	248	0.00	29.805 
20:10	51.4	51.4	51.4	64	39.6	1	3	248	0.00	29.805 
20:15	51.4	51.4	51.4	64	39.6	1	3	248	0.00	29.812 
20:20	51.3	51.3	51.3	64	39.5	0	3	248	0.00	29.812 
20:25	51.3	51.3	51.3	64	39.5	0	3	248	0.00	29.812 
20:30	51.3	51.3	51.3	65	39.9	0	2	248	0.00	29.817 
20:35	51.1	51.1	51.1	65	39.7	1	5	248	0.00	29.817 
20:40	51.1	51.1	51.1	65	39.7	1	4	248	0.00	29.817 
20:45	51.0	51.0	51.0	66	40.0	1	3	248	0.00	29.819 
20:50	51.0	51.0	51.0	66	40.0	1	3	248	0.00	29.819 
20:55	50.8	50.8	50.8	67	40.2	1	4	248	0.00	29.819 
21:00	50.8	50.8	50.8	67	40.2	1	3	248	0.00	29.820 
21:05	50.7	50.7	50.7	68	40.5	0	2	248	0.00	29.820 
21:10	50.7	50.7	50.7	68	40.5	1	3	248	0.00	29.820 
21:15	50.7	50.7	50.7	68	40.5	0	3	248	0.00	29.822 
21:20	50.5	50.5	50.5	69	40.7	0	3	248	0.00	29.822 
21:25	50.5	50.5	50.5	69	40.7	1	3	248	0.00	29.822 
21:30	50.5	50.5	50.5	69	40.7	0	3	248	0.00	29.824 
21:35	50.5	50.5	50.5	69	40.7	0	2	248	0.00	29.824 
21:40	50.4	50.4	50.4	69	40.6	0	3	248	0.00	29.824 
21:45	50.4	50.4	50.4	69	40.6	0	3	248	0.00	29.825 
21:50	50.4	50.4	50.4	70	41.0	0	3	248	0.00	29.825 
21:55	50.4	50.4	50.4	70	41.0	0	2	248	0.00	29.825 
22:00	50.2	50.2	50.2	70	40.8	1	3	248	0.00	29.825 
22:05	50.2	50.2	50.2	70	40.8	1	4	248	0.00	29.825 
22:10	50.2	50.2	50.2	71	41.2	1	3	248	0.00	29.825 
22:15	50.2	50.2	50.2	71	41.2	1	3	248	0.00	29.825 
22:20	50.2	50.2	50.2	71	41.2	0	1	248	0.00	29.825 
22:25	50.2	50.2	50.2	71	41.2	1	3	248	0.00	29.825 
22:30	50.2	50.2	50.2	71	41.2	1	3	248	0.00	29.826 
22:35	50.2	50.2	50.2	71	41.2	0	2	248	0.00	29.826 
22:40	50.2	50.2	50.2	71	41.2	1	3	248	0.00	29.826 
22:45	50.2	50.2	50.2	71	41.2	1	4	248	0.00	29.827 
22:50	50.2	50.2	50.2	72	41.5	1	3	248	0.00	29.827 
22:55	50.1	50.1	50.1	73	41.8	0	2	248	0.00	29.827 
23:00	50.1	50.1	50.1	74	42.1	0	2	248	0.00	29.824 
23:05	49.8	49.8	49.8	75	42.2	1	3	248	0.00	29.824 
23:10	49.5	49.5	49.5	77	42.6	2	5	248	0.00	29.824 
23:15	49.4	49.4	49.4	78	42.8	1	4	270	0.00	29.820 
23:20	49.1	49.1	49.1	79	42.9	0	4	270	0.01	29.820 
23:25	48.9	48.9	48.9	80	43.0	1	3	270	0.00	29.820 
23:30	48.8	48.8	48.8	81	43.2	0	2	270	0.00	29.818 
23:35	48.6	48.6	48.6	82	43.4	0	3	270	0.00	29.818 
23:40	48.5	48.5	48.5	83	43.6	0	2	270	0.00	29.818 
23:45	48.3	48.3	48.3	83	43.4	1	3	270	0.00	29.815 
23:50	48.2	48.2	48.2	84	43.6	1	3	270	0.00	29.815 
23:55	48.2	48.2	48.2	84	43.6	0	3	270	0.00	29.815 

CoCoRaHS
IN-AL-39
A2 Web Hosting
Creative Commons License
GoDaddy
search engine by freefind advanced

loaded 2018-11-14 00:39:19 • last modified 2010-11-18 10:43:29
Privacy PolicyDisclaimer
• wx.awcolley.com is powered by PmWiki v.2002016 •
• all content (unless otherwise noted) © 2018 A W Colley